Time;durP1;ratioP1;P1;durP2;ratioP2;P2;SDS_P1;SDS_P2;PMS_P1;PMS_P2;Temp;Humidity;BMP_temperature;BMP_pressure;BME280_temperature;BME280_humidity;BME280_pressure;Samples;Min_cycle;Max_cycle;Signal;HPM_P1;HPM_P2
2022/06/03 00:02:58;;;;;;;13.43;9.80;;;16.10;99.90;;;;;;5072629;28;20188;-62
2022/06/03 00:05:55;;;;;;;17.10;10.40;;;16.00;99.90;;;;;;5075620;28;20207;-61
2022/06/03 00:08:56;;;;;;;16.47;9.30;;;16.00;99.90;;;;;;5091740;28;20242;-62
2022/06/03 00:11:34;;;;;;;13.40;9.83;;;15.90;99.90;;;;;;5091312;28;20233;-62
2022/06/03 00:14:25;;;;;;;13.50;10.40;;;15.90;99.90;;;;;;5091975;28;20280;-63
2022/06/03 00:16:58;;;;;;;12.83;9.23;;;15.80;99.90;;;;;;5090806;28;20219;-62
2022/06/03 00:19:37;;;;;;;16.87;10.40;;;15.90;99.90;;;;;;5070748;28;20194;-62
2022/06/03 00:22:22;;;;;;;12.67;9.13;;;15.80;99.90;;;;;;5071355;28;20882;-63
2022/06/03 00:25:06;;;;;;;14.13;9.57;;;15.80;99.90;;;;;;5070707;28;20200;-62
2022/06/03 00:28:01;;;;;;;16.10;9.97;;;15.90;99.90;;;;;;5071191;28;20193;-63
2022/06/03 00:30:47;;;;;;;15.00;9.47;;;15.90;99.90;;;;;;5070980;28;20295;-62
2022/06/03 00:33:34;;;;;;;14.03;9.13;;;15.80;99.90;;;;;;5071179;28;20189;-61
2022/06/03 00:36:34;;;;;;;11.97;8.87;;;15.80;99.90;;;;;;5079947;28;20737;-64
2022/06/03 00:39:23;;;;;;;17.33;9.93;;;15.80;99.90;;;;;;5091173;28;20291;-65
2022/06/03 00:42:03;;;;;;;12.10;8.97;;;15.80;99.90;;;;;;5091245;28;20243;-63
2022/06/03 00:45:02;;;;;;;14.20;9.70;;;15.90;99.90;;;;;;5090698;28;20280;-63
2022/06/03 00:47:50;;;;;;;13.13;9.80;;;15.90;99.90;;;;;;5091376;28;20274;-63
2022/06/03 00:50:35;;;;;;;15.13;9.83;;;15.90;99.90;;;;;;5088476;28;20301;-62
2022/06/03 00:53:44;;;;;;;11.37;9.13;;;15.90;99.90;;;;;;5071282;28;20272;-63
2022/06/03 00:56:41;;;;;;;14.73;9.47;;;15.80;99.90;;;;;;5070910;28;20236;-62
2022/06/03 00:59:35;;;;;;;12.87;9.47;;;15.90;99.90;;;;;;5071138;28;20209;-62
2022/06/03 01:02:20;;;;;;;14.23;9.70;;;15.90;99.90;;;;;;5064058;28;20279;-62
2022/06/03 01:05:09;;;;;;;11.67;9.93;;;15.90;99.90;;;;;;5087021;28;20215;-65
2022/06/03 01:07:47;;;;;;;11.93;9.57;;;15.90;99.90;;;;;;5090803;28;20589;-63
2022/06/03 01:10:44;;;;;;;11.63;8.90;;;15.90;99.90;;;;;;5091132;28;20271;-63
2022/06/03 01:13:39;;;;;;;15.50;9.80;;;15.90;99.90;;;;;;5090921;28;20258;-64
2022/06/03 01:16:22;;;;;;;11.93;9.13;;;16.00;99.90;;;;;;5090916;28;20320;-66
2022/06/03 01:18:57;;;;;;;9.93;8.87;;;16.00;99.90;;;;;;5092335;28;20196;-64
2022/06/03 01:21:38;;;;;;;11.53;9.73;;;16.00;99.90;;;;;;5094699;28;20194;-63
2022/06/03 01:24:51;;;;;;;12.07;9.83;;;16.00;99.90;;;;;;5083103;28;20748;-65
2022/06/03 01:27:53;;;;;;;14.50;9.60;;;15.90;99.90;;;;;;5055426;28;20211;-64
2022/06/03 01:30:24;;;;;;;14.73;9.63;;;15.90;99.90;;;;;;5073712;28;20279;-62
2022/06/03 01:33:21;;;;;;;14.13;9.87;;;15.90;99.90;;;;;;5074309;28;20632;-64
2022/06/03 01:36:17;;;;;;;12.70;9.90;;;15.80;99.90;;;;;;5074159;28;20271;-63
2022/06/03 01:38:59;;;;;;;13.77;10.80;;;15.80;99.90;;;;;;5074117;28;20844;-62
2022/06/03 01:41:46;;;;;;;16.90;10.10;;;15.80;99.90;;;;;;5073575;28;20190;-64
2022/06/03 01:44:53;;;;;;;13.07;9.93;;;15.80;99.90;;;;;;5073601;28;20289;-62
2022/06/03 01:48:02;;;;;;;15.67;10.30;;;15.80;99.90;;;;;;5033319;28;20215;-62
2022/06/03 01:50:49;;;;;;;14.27;10.23;;;15.80;99.90;;;;;;5073540;28;20216;-63
2022/06/03 01:53:35;;;;;;;13.90;10.00;;;15.70;99.90;;;;;;5073524;28;20280;-63
2022/06/03 01:56:45;;;;;;;17.07;9.83;;;15.60;99.90;;;;;;5073834;28;20657;-63
2022/06/03 01:59:39;;;;;;;14.17;9.87;;;15.60;99.90;;;;;;5073163;28;20208;-63
2022/06/03 02:02:49;;;;;;;14.10;9.70;;;15.60;99.90;;;;;;5073394;28;20221;-63
2022/06/03 02:06:03;;;;;;;14.77;9.73;;;15.60;99.90;;;;;;5073406;28;20294;-62
2022/06/03 02:09:09;;;;;;;13.23;9.13;;;15.60;99.90;;;;;;5072723;28;20196;-62
2022/06/03 02:12:24;;;;;;;11.37;8.97;;;15.50;99.90;;;;;;5073514;28;20317;-60
2022/06/03 02:15:16;;;;;;;12.00;8.73;;;15.40;99.90;;;;;;5069542;28;20281;-63
2022/06/03 02:18:12;;;;;;;12.60;9.27;;;15.30;99.90;;;;;;5073584;28;20799;-62
2022/06/03 02:21:11;;;;;;;16.73;9.57;;;15.30;99.90;;;;;;5072973;28;20276;-62
2022/06/03 02:23:55;;;;;;;11.50;9.13;;;15.30;99.90;;;;;;5072980;28;20735;-62
2022/06/03 02:26:54;;;;;;;11.90;9.20;;;15.20;99.90;;;;;;5072807;28;20192;-62
2022/06/03 02:33:17;;;;;;;12.33;8.80;;;15.10;99.90;;;;;;5072715;28;20689;-63
2022/06/03 02:36:32;;;;;;;12.27;9.60;;;15.10;99.90;;;;;;5052669;28;20243;-62
2022/06/03 02:39:10;;;;;;;12.97;9.67;;;15.10;99.90;;;;;;5072702;28;20209;-63
2022/06/03 02:42:10;;;;;;;15.43;9.13;;;14.90;99.90;;;;;;5072946;28;20291;-62
2022/06/03 02:45:21;;;;;;;11.57;8.80;;;14.80;99.90;;;;;;5072528;28;20653;-64
2022/06/03 02:48:21;;;;;;;15.67;9.97;;;14.80;99.90;;;;;;5044143;28;20280;-62
2022/06/03 02:51:14;;;;;;;11.17;8.43;;;14.70;99.90;;;;;;5036155;28;20665;-62
2022/06/03 02:54:14;;;;;;;11.37;8.30;;;14.70;99.90;;;;;;5072483;28;20200;-63
2022/06/03 02:57:10;;;;;;;11.27;8.73;;;14.70;99.90;;;;;;5072761;28;20654;-62
2022/06/03 03:00:02;;;;;;;9.43;7.67;;;14.60;99.90;;;;;;5072248;28;20188;-63
2022/06/03 03:02:46;;;;;;;9.53;6.90;;;14.50;99.90;;;;;;5071992;28;20221;-62
2022/06/03 03:05:28;;;;;;;8.53;7.10;;;14.50;99.90;;;;;;5072277;28;20276;-62
2022/06/03 03:08:22;;;;;;;6.93;6.13;;;14.50;99.90;;;;;;5072155;28;20197;-62
2022/06/03 03:11:11;;;;;;;9.17;5.97;;;14.50;99.90;;;;;;5056124;28;20592;-63
2022/06/03 03:14:20;;;;;;;8.77;6.10;;;14.40;99.90;;;;;;5071987;28;20237;-62
2022/06/03 03:17:29;;;;;;;8.97;6.40;;;14.40;99.90;;;;;;5061171;28;20302;-62
2022/06/03 03:20:30;;;;;;;7.77;6.37;;;14.40;99.90;;;;;;5043095;28;20211;-63
2022/06/03 03:23:26;;;;;;;9.80;6.47;;;14.40;99.90;;;;;;5071856;28;20263;-63
2022/06/03 03:26:05;;;;;;;9.53;6.87;;;14.40;99.90;;;;;;5072173;28;20231;-63
2022/06/03 03:29:22;;;;;;;8.13;6.60;;;14.30;99.90;;;;;;5071494;28;20199;-65
2022/06/03 03:32:10;;;;;;;11.03;6.57;;;14.30;99.90;;;;;;5071858;28;20761;-63
2022/06/03 03:35:20;;;;;;;9.27;6.47;;;14.40;99.90;;;;;;5071625;28;20250;-63
2022/06/03 03:38:16;;;;;;;8.43;6.37;;;14.30;99.90;;;;;;5071676;28;20262;-63
2022/06/03 03:41:19;;;;;;;8.53;6.30;;;14.40;99.90;;;;;;5071486;28;20188;-62
2022/06/03 03:44:14;;;;;;;10.90;7.17;;;14.30;99.90;;;;;;5071516;28;20329;-63
2022/06/03 03:47:27;;;;;;;8.03;6.80;;;14.30;99.90;;;;;;5071787;28;20288;-63
2022/06/03 03:50:44;;;;;;;8.70;7.13;;;14.30;99.90;;;;;;5071331;28;20291;-64
2022/06/03 03:53:35;;;;;;;12.20;6.70;;;14.30;99.90;;;;;;5071320;28;20201;-63
2022/06/03 03:56:44;;;;;;;8.47;6.73;;;14.40;99.90;;;;;;5072562;28;20607;-64
2022/06/03 03:59:45;;;;;;;8.80;6.70;;;14.40;99.90;;;;;;5050560;28;20204;-63
2022/06/03 04:02:38;;;;;;;9.20;6.87;;;14.50;99.90;;;;;;5081315;28;20709;-64
2022/06/03 04:05:33;;;;;;;7.70;6.17;;;14.40;99.90;;;;;;5091080;28;20279;-63
2022/06/03 04:08:21;;;;;;;8.73;6.47;;;14.50;99.90;;;;;;5091362;28;20725;-63
2022/06/03 04:11:27;;;;;;;8.97;5.77;;;14.50;99.90;;;;;;5091523;28;20207;-64
2022/06/03 04:14:18;;;;;;;5.50;5.00;;;14.50;99.90;;;;;;5072971;28;20237;-61
2022/06/03 04:17:25;;;;;;;6.57;5.20;;;14.50;99.90;;;;;;5071221;28;20406;-63
2022/06/03 04:20:25;;;;;;;4.83;4.43;;;14.40;99.90;;;;;;5071187;28;20270;-63
2022/06/03 04:23:25;;;;;;;5.33;4.63;;;14.40;99.90;;;;;;5071275;28;20615;-62
2022/06/03 04:26:17;;;;;;;6.03;4.93;;;14.40;99.90;;;;;;5070770;28;20242;-65
2022/06/03 04:29:08;;;;;;;4.93;4.37;;;14.40;99.90;;;;;;5075582;28;20200;-63
2022/06/03 04:32:08;;;;;;;7.50;4.27;;;14.40;99.90;;;;;;5091462;28;20762;-63
2022/06/03 04:35:20;;;;;;;5.20;4.70;;;14.50;99.90;;;;;;5091068;28;20298;-62
2022/06/03 04:38:31;;;;;;;5.30;4.53;;;14.60;99.90;;;;;;5091684;28;20279;-63
2022/06/03 04:41:37;;;;;;;4.87;3.97;;;14.70;99.90;;;;;;5091317;28;20701;-63
2022/06/03 04:44:49;;;;;;;4.73;3.80;;;14.80;99.90;;;;;;5080885;28;20284;-64
2022/06/03 04:48:09;;;;;;;5.83;4.40;;;15.00;99.90;;;;;;5043606;28;20541;-63
2022/06/03 04:51:25;;;;;;;5.43;4.30;;;15.30;99.90;;;;;;5056935;28;20633;-63
2022/06/03 04:54:35;;;;;;;7.83;3.87;;;15.40;99.90;;;;;;5095212;28;20280;-64
2022/06/03 04:57:42;;;;;;;5.13;3.33;;;15.50;99.90;;;;;;5077359;28;20240;-62
2022/06/03 05:00:25;;;;;;;4.47;3.70;;;15.50;99.90;;;;;;5074899;28;20199;-64
2022/06/03 05:03:22;;;;;;;5.30;3.70;;;15.40;99.90;;;;;;5074391;28;20189;-64
2022/06/03 05:06:47;;;;;;;7.83;3.67;;;15.30;99.90;;;;;;5074495;28;20211;-64
2022/06/03 05:10:22;;;;;;;4.97;3.60;;;15.40;99.90;;;;;;5074278;28;20290;-64
2022/06/03 05:13:24;;;;;;;5.40;3.53;;;15.30;99.90;;;;;;5073856;28;20247;-63
2022/06/03 05:16:30;;;;;;;6.27;3.70;;;15.30;99.90;;;;;;5043670;28;20698;-63
2022/06/03 05:19:36;;;;;;;6.07;3.90;;;15.30;99.90;;;;;;5074128;28;20708;-64
2022/06/03 05:22:31;;;;;;;6.77;4.00;;;15.30;99.90;;;;;;5073942;28;20287;-63
2022/06/03 05:25:38;;;;;;;6.27;3.93;;;15.40;99.90;;;;;;5073901;28;20194;-63
2022/06/03 05:28:42;;;;;;;4.97;3.50;;;15.50;99.90;;;;;;5072968;28;20262;-65
2022/06/03 05:31:40;;;;;;;9.77;3.70;;;15.60;99.90;;;;;;5073960;28;20242;-63
2022/06/03 05:34:43;;;;;;;3.20;2.87;;;15.60;99.90;;;;;;5073303;28;20193;-62
2022/06/03 05:37:45;;;;;;;7.20;2.93;;;15.70;99.90;;;;;;5073772;28;20197;-63
2022/06/03 05:40:35;;;;;;;3.90;2.60;;;15.70;99.90;;;;;;5073999;28;20189;-63
2022/06/03 05:43:21;;;;;;;5.67;3.13;;;15.80;99.90;;;;;;5073537;28;20280;-65
2022/06/03 05:46:15;;;;;;;3.53;2.80;;;15.80;99.90;;;;;;5073722;28;20193;-63
2022/06/03 05:48:56;;;;;;;4.37;2.70;;;15.80;99.90;;;;;;5055233;28;20232;-63
2022/06/03 05:51:40;;;;;;;4.40;3.10;;;15.80;99.90;;;;;;5073318;28;20704;-64
2022/06/03 05:54:17;;;;;;;3.10;2.50;;;15.80;99.90;;;;;;5073763;28;20636;-65
2022/06/03 05:56:51;;;;;;;5.20;2.40;;;15.80;99.90;;;;;;5073102;28;20687;-65
2022/06/03 05:59:38;;;;;;;5.00;2.63;;;15.90;99.90;;;;;;5073397;28;20209;-63
2022/06/03 06:02:17;;;;;;;2.80;2.50;;;16.00;99.90;;;;;;5073394;28;20612;-64
2022/06/03 06:05:13;;;;;;;5.23;2.70;;;16.20;99.90;;;;;;5073165;28;20611;-63
2022/06/03 06:07:51;;;;;;;2.43;2.10;;;16.20;99.90;;;;;;5073161;28;20203;-64
2022/06/03 06:10:31;;;;;;;4.20;3.17;;;16.30;99.90;;;;;;5078662;28;20221;-64
2022/06/03 06:13:21;;;;;;;3.50;2.63;;;16.40;99.90;;;;;;5082068;28;20235;-63
2022/06/03 06:16:01;;;;;;;4.13;2.63;;;16.50;99.90;;;;;;5072105;28;20218;-65
2022/06/03 06:18:40;;;;;;;3.80;2.60;;;16.60;99.90;;;;;;5078315;28;20603;-66
2022/06/03 06:21:19;;;;;;;2.43;2.13;;;16.60;99.90;;;;;;5071449;28;20194;-64
2022/06/03 06:23:56;;;;;;;4.73;2.40;;;16.70;99.90;;;;;;5072205;28;20449;-63
2022/06/03 06:26:49;;;;;;;4.23;2.47;;;16.70;99.90;;;;;;5072439;28;20194;-63
2022/06/03 06:29:51;;;;;;;3.33;2.40;;;16.80;99.90;;;;;;5080899;28;20196;-64
2022/06/03 06:32:41;;;;;;;3.90;2.57;;;16.90;99.90;;;;;;5076654;28;20229;-64
2022/06/03 06:35:42;;;;;;;4.37;2.47;;;17.00;99.90;;;;;;5072193;28;20212;-64
2022/06/03 06:38:13;;;;;;;5.03;2.60;;;17.20;99.90;;;;;;5082648;28;20233;-65
2022/06/03 06:40:57;;;;;;;3.07;2.50;;;17.20;99.90;;;;;;5071856;28;20689;-65
2022/06/03 06:43:40;;;;;;;7.53;2.70;;;17.30;99.90;;;;;;5075602;28;20631;-63
2022/06/03 06:46:16;;;;;;;3.63;2.87;;;17.40;99.90;;;;;;5082314;28;20201;-67
2022/06/03 06:48:56;;;;;;;3.00;2.50;;;17.40;99.90;;;;;;5078453;28;20278;-64
2022/06/03 06:51:48;;;;;;;3.87;2.20;;;17.40;99.90;;;;;;5092776;28;20286;-65
2022/06/03 06:54:26;;;;;;;8.07;2.67;;;17.50;99.90;;;;;;5078912;28;20347;-64
2022/06/03 06:56:58;;;;;;;4.83;2.57;;;17.60;99.90;;;;;;5072813;28;20197;-64
2022/06/03 06:59:31;;;;;;;5.27;2.87;;;17.70;99.90;;;;;;5075511;28;20196;-65
2022/06/03 07:02:03;;;;;;;5.93;2.70;;;17.70;99.90;;;;;;5082833;28;20240;-65
2022/06/03 07:04:34;;;;;;;4.33;3.20;;;17.70;99.90;;;;;;5092619;28;20592;-65
2022/06/03 07:07:09;;;;;;;3.70;2.87;;;17.70;99.90;;;;;;5092415;28;20199;-64
2022/06/03 07:09:47;;;;;;;3.33;2.57;;;17.70;99.90;;;;;;5088577;28;20661;-63
2022/06/03 07:12:18;;;;;;;7.00;2.50;;;17.70;99.90;;;;;;5082400;28;20246;-64
2022/06/03 07:14:55;;;;;;;3.50;2.57;;;17.80;99.90;;;;;;5090275;28;20314;-63
2022/06/03 07:20:37;;;;;;;3.33;2.27;;;17.90;99.90;;;;;;5075334;28;20184;-65
2022/06/03 07:23:11;;;;;;;3.13;2.53;;;17.90;99.90;;;;;;5072302;28;20267;-66
2022/06/03 07:25:45;;;;;;;6.27;2.50;;;18.00;99.90;;;;;;5090619;28;20205;-64
2022/06/03 07:28:27;;;;;;;3.83;2.23;;;18.10;99.90;;;;;;5072598;28;20290;-66
2022/06/03 07:30:59;;;;;;;5.20;2.57;;;18.10;99.90;;;;;;5072062;28;20198;-64
2022/06/03 07:33:50;;;;;;;3.30;2.50;;;18.20;99.90;;;;;;5071549;28;20674;-64
2022/06/03 07:36:23;;;;;;;4.80;3.10;;;18.20;99.90;;;;;;5071738;28;20189;-65
2022/06/03 07:38:54;;;;;;;4.03;2.33;;;18.20;99.90;;;;;;5071517;28;20193;-64
2022/06/03 07:41:30;;;;;;;6.17;2.37;;;18.30;99.90;;;;;;5071543;28;20288;-64
2022/06/03 07:44:02;;;;;;;3.63;2.50;;;18.30;99.90;;;;;;5071041;28;20651;-63
2022/06/03 07:46:38;;;;;;;5.47;2.47;;;18.40;99.90;;;;;;5071542;28;20618;-65
2022/06/03 07:49:05;;;;;;;3.70;2.53;;;18.40;99.90;;;;;;5071262;28;20226;-63
2022/06/03 07:51:38;;;;;;;2.40;2.10;;;18.40;99.90;;;;;;5071282;28;20216;-64
2022/06/03 07:54:07;;;;;;;3.33;2.60;;;18.60;99.90;;;;;;5071257;28;20239;-64
2022/06/03 07:56:38;;;;;;;3.23;2.20;;;18.70;99.90;;;;;;5071020;28;20300;-63
2022/06/03 07:59:10;;;;;;;3.40;2.23;;;18.70;99.90;;;;;;5070855;28;20197;-64
2022/06/03 08:01:42;;;;;;;4.40;2.53;;;18.80;99.90;;;;;;5071046;28;20196;-64
2022/06/03 08:04:13;;;;;;;2.73;2.00;;;18.80;99.90;;;;;;5071069;28;20189;-66
2022/06/03 08:12:28;;;;;;;2.67;2.00;;;19.00;99.90;;;;;;5060702;28;20293;-64
2022/06/03 08:14:57;;;;;;;2.50;2.00;;;19.00;99.90;;;;;;5070854;28;20237;-63
2022/06/03 08:17:25;;;;;;;2.83;2.20;;;19.10;99.90;;;;;;5071019;28;20224;-65
2022/06/03 08:19:53;;;;;;;3.43;2.10;;;19.10;99.90;;;;;;5070973;28;20252;-64
2022/06/03 08:22:24;;;;;;;3.17;2.00;;;19.10;99.90;;;;;;5082174;28;20545;-64
2022/06/03 08:24:56;;;;;;;2.53;1.90;;;19.10;99.90;;;;;;5084814;28;20239;-65
2022/06/03 08:27:26;;;;;;;3.77;2.40;;;19.10;99.90;;;;;;5096246;28;20562;-64
2022/06/03 08:30:02;;;;;;;3.07;2.27;;;19.20;99.90;;;;;;5094954;28;20205;-64
2022/06/03 08:32:33;;;;;;;5.40;2.00;;;19.30;99.90;;;;;;5084391;28;20224;-64
2022/06/03 08:35:05;;;;;;;3.03;1.90;;;19.40;99.90;;;;;;5089301;28;20191;-64
2022/06/03 08:37:35;;;;;;;1.83;1.70;;;19.40;99.90;;;;;;5097565;28;20193;-67
2022/06/03 08:40:15;;;;;;;2.40;1.80;;;19.40;99.90;;;;;;5082116;28;20270;-66
2022/06/03 08:42:49;;;;;;;2.23;1.70;;;19.40;99.90;;;;;;5084207;28;20196;-66
2022/06/03 08:45:25;;;;;;;4.90;2.10;;;19.40;99.90;;;;;;5083992;28;20191;-67
2022/06/03 08:47:56;;;;;;;2.50;2.10;;;19.40;99.90;;;;;;5097222;28;20192;-64
2022/06/03 08:50:31;;;;;;;2.03;1.67;;;19.50;99.90;;;;;;5098143;28;20654;-67
2022/06/03 08:53:04;;;;;;;2.33;1.60;;;19.50;99.90;;;;;;5089744;28;20236;-68
2022/06/03 08:55:47;;;;;;;2.00;1.80;;;19.60;99.90;;;;;;5077660;28;20189;-65
2022/06/03 08:58:30;;;;;;;3.43;1.77;;;19.60;99.90;;;;;;5077487;28;20317;-66
2022/06/03 09:01:10;;;;;;;1.60;1.50;;;19.70;99.90;;;;;;5077749;28;20185;-63
2022/06/03 09:03:46;;;;;;;1.93;1.60;;;19.80;99.90;;;;;;5077501;28;20219;-65
2022/06/03 09:06:25;;;;;;;3.37;2.10;;;19.80;99.90;;;;;;5089183;28;20203;-66
2022/06/03 09:08:57;;;;;;;3.43;1.97;;;19.90;99.90;;;;;;5097610;28;20306;-63
2022/06/03 09:11:30;;;;;;;2.93;1.83;;;20.00;99.90;;;;;;5097029;28;20196;-64
2022/06/03 09:14:00;;;;;;;15.93;2.00;;;20.00;99.90;;;;;;5096520;28;20228;-65
2022/06/03 09:16:30;;;;;;;2.93;1.77;;;19.90;99.90;;;;;;5095441;28;20589;-64
2022/06/03 09:19:00;;;;;;;1.67;1.57;;;20.00;99.90;;;;;;5097496;28;20203;-66
2022/06/03 09:21:32;;;;;;;1.63;1.53;;;20.00;99.90;;;;;;5097332;28;20197;-67
2022/06/03 09:24:07;;;;;;;4.70;2.00;;;20.10;99.90;;;;;;5091698;28;20238;-63
2022/06/03 09:26:39;;;;;;;4.57;1.77;;;20.10;99.90;;;;;;5097239;28;20200;-64
2022/06/03 09:29:10;;;;;;;3.40;1.47;;;20.10;99.90;;;;;;5097281;28;20231;-65
2022/06/03 09:31:42;;;;;;;4.40;1.70;;;20.20;99.90;;;;;;5096927;28;20556;-64
2022/06/03 09:34:12;;;;;;;2.00;1.80;;;20.20;99.90;;;;;;5097358;28;20663;-64
2022/06/03 09:36:39;;;;;;;1.83;1.63;;;20.30;99.90;;;;;;5097045;28;20502;-63
2022/06/03 09:39:09;;;;;;;4.97;1.93;;;20.40;99.90;;;;;;5092326;28;20199;-64
2022/06/03 09:41:39;;;;;;;2.73;1.83;;;20.40;99.90;;;;;;5092058;28;20295;-63
2022/06/03 09:44:08;;;;;;;1.90;1.40;;;20.40;99.90;;;;;;5093913;28;20211;-64
2022/06/03 09:46:36;;;;;;;1.77;1.60;;;20.50;99.90;;;;;;5084233;28;20717;-64
2022/06/03 09:49:06;;;;;;;3.60;1.60;;;20.60;99.90;;;;;;5075568;28;20547;-63
2022/06/03 09:51:57;;;;;;;3.07;1.97;;;20.60;99.90;;;;;;5075785;28;20214;-65
2022/06/03 09:54:26;;;;;;;3.00;1.73;;;20.70;99.90;;;;;;5093158;28;20306;-64
2022/06/03 09:56:56;;;;;;;1.80;1.50;;;20.80;99.90;;;;;;5093914;28;20212;-64
2022/06/03 09:59:26;;;;;;;3.17;1.50;;;20.80;99.90;;;;;;5092993;28;20550;-63
2022/06/03 10:01:54;;;;;;;2.43;1.27;;;20.80;99.90;;;;;;5087318;28;20289;-64
2022/06/03 10:04:24;;;;;;;2.17;1.87;;;20.90;99.90;;;;;;5082174;28;20562;-64
2022/06/03 10:06:52;;;;;;;1.93;1.47;;;20.90;99.90;;;;;;5082356;28;20184;-65
2022/06/03 10:17:40;;;;;;;2.17;1.40;;;21.10;99.90;;;;;;5078351;28;20616;-65
2022/06/03 10:20:10;;;;;;;2.10;1.30;;;21.10;99.90;;;;;;5086485;28;20222;-64
2022/06/03 10:22:37;;;;;;;2.17;1.57;;;21.10;98.90;;;;;;5089282;28;20200;-64
2022/06/03 10:25:04;;;;;;;3.43;1.43;;;21.10;96.40;;;;;;5073005;28;20205;-65
2022/06/03 10:27:31;;;;;;;1.20;1.20;;;21.10;97.50;;;;;;5073216;28;20722;-67
2022/06/03 10:30:00;;;;;;;1.90;1.50;;;21.20;98.00;;;;;;5085375;28;20605;-67
2022/06/03 10:32:27;;;;;;;1.60;1.50;;;21.20;99.20;;;;;;5084037;28;20201;-65
2022/06/03 10:35:04;;;;;;;1.87;1.30;;;21.20;99.70;;;;;;5092577;28;20258;-66
2022/06/03 10:37:34;;;;;;;2.53;1.40;;;21.30;99.20;;;;;;5085139;28;20200;-64
2022/06/03 10:40:01;;;;;;;2.20;1.40;;;21.40;99.30;;;;;;5075374;28;20224;-64
2022/06/03 10:42:29;;;;;;;1.63;1.50;;;21.50;99.10;;;;;;5082809;28;20743;-64
2022/06/03 10:44:58;;;;;;;2.57;1.40;;;21.60;97.30;;;;;;5081509;28;20197;-66
2022/06/03 10:47:35;;;;;;;2.00;1.33;;;21.50;97.30;;;;;;5082405;28;20200;-64
2022/06/03 10:50:05;;;;;;;2.37;1.70;;;21.60;97.80;;;;;;5071286;28;20192;-65
2022/06/03 11:01:07;;;;;;;7.63;1.30;;;22.00;96.20;;;;;;5082771;28;20258;-64
2022/06/03 11:03:39;;;;;;;1.67;1.40;;;21.90;96.40;;;;;;5082976;28;20224;-65
2022/06/03 11:06:09;;;;;;;1.87;1.30;;;21.90;96.20;;;;;;5071653;28;20191;-65
2022/06/03 11:08:57;;;;;;;2.50;1.30;;;21.90;95.40;;;;;;5071956;28;20479;-63
2022/06/03 11:11:43;;;;;;;2.73;1.80;;;22.00;95.90;;;;;;5071766;28;20345;-66
2022/06/03 11:14:27;;;;;;;4.60;1.80;;;22.10;96.40;;;;;;5076099;28;20228;-64
2022/06/03 11:16:59;;;;;;;2.73;1.77;;;22.10;95.20;;;;;;5070705;28;20637;-62
2022/06/03 11:19:33;;;;;;;1.83;1.40;;;22.10;95.30;;;;;;5079899;28;20815;-64
2022/06/03 11:22:26;;;;;;;4.20;1.60;;;22.20;96.00;;;;;;5082817;28;20192;-65
2022/06/03 11:25:02;;;;;;;3.40;1.70;;;22.20;96.70;;;;;;5074502;28;20667;-64
2022/06/03 11:27:37;;;;;;;1.83;1.63;;;22.20;97.70;;;;;;5080943;28;20238;-63
2022/06/03 11:30:08;;;;;;;1.47;1.37;;;22.20;96.80;;;;;;5071570;28;20215;-64
2022/06/03 11:32:36;;;;;;;2.10;1.80;;;22.30;96.90;;;;;;5071675;28;20209;-63
2022/06/03 11:35:06;;;;;;;2.87;2.20;;;22.30;98.00;;;;;;5071422;28;20224;-65
2022/06/03 11:37:36;;;;;;;10.33;1.90;;;22.30;97.80;;;;;;5079444;28;20293;-65
2022/06/03 11:40:09;;;;;;;1.93;1.60;;;22.30;96.80;;;;;;5071420;28;20193;-65
2022/06/03 11:42:43;;;;;;;2.47;1.67;;;22.30;97.00;;;;;;5071270;28;20192;-62
2022/06/03 11:45:15;;;;;;;1.60;1.50;;;22.30;97.30;;;;;;5071133;28;20190;-65
2022/06/03 11:47:49;;;;;;;1.67;1.50;;;22.30;97.60;;;;;;5071054;28;20189;-64
2022/06/03 11:50:19;;;;;;;3.97;1.80;;;22.40;97.30;;;;;;5070551;28;20210;-65
2022/06/03 11:52:49;;;;;;;1.60;1.50;;;22.40;96.80;;;;;;5080425;28;20207;-65
2022/06/03 11:55:18;;;;;;;2.20;1.70;;;22.50;97.10;;;;;;5078253;28;20226;-64
2022/06/03 11:57:52;;;;;;;4.43;1.80;;;22.40;96.80;;;;;;5080967;28;20719;-63
2022/06/03 12:08:56;;;;;;;2.47;1.70;;;22.50;96.20;;;;;;5019657;28;20663;-75
2022/06/03 12:14:44;;;;;;;2.23;1.60;;;22.70;96.40;;;;;;5008624;28;20234;-74
2022/06/03 12:17:28;;;;;;;2.37;1.70;;;22.70;96.00;;;;;;5011096;28;20287;-73
2022/06/03 12:19:55;;;;;;;1.87;1.67;;;22.70;96.10;;;;;;5010142;28;20208;-74
2022/06/03 12:22:42;;;;;;;2.87;1.80;;;22.70;96.50;;;;;;5009774;28;20201;-76
2022/06/03 12:25:44;;;;;;;5.33;2.10;;;22.90;95.90;;;;;;5011566;28;20191;-74
2022/06/03 12:28:20;;;;;;;5.23;1.80;;;23.00;96.50;;;;;;5011638;28;20193;-74
2022/06/03 12:30:51;;;;;;;2.23;1.63;;;23.10;96.30;;;;;;5011660;28;20230;-73
2022/06/03 12:33:29;;;;;;;2.30;1.90;;;23.10;96.50;;;;;;5012078;28;20633;-74
2022/06/03 12:36:06;;;;;;;5.00;1.70;;;23.10;97.30;;;;;;5011817;28;20219;-73
2022/06/03 12:39:01;;;;;;;2.90;1.70;;;22.90;96.80;;;;;;5011692;28;20192;-75
2022/06/03 12:42:02;;;;;;;2.00;1.60;;;22.80;96.90;;;;;;4998686;28;20252;-74
2022/06/03 12:44:44;;;;;;;2.10;1.80;;;22.70;96.60;;;;;;5011740;28;20214;-73
2022/06/03 12:47:45;;;;;;;2.40;1.77;;;22.70;97.20;;;;;;5011535;28;20197;-73
2022/06/03 12:50:36;;;;;;;6.83;1.83;;;22.70;96.60;;;;;;5012139;28;20282;-74
2022/06/03 12:53:24;;;;;;;3.37;1.80;;;22.70;96.20;;;;;;5011897;28;20527;-74
2022/06/03 12:55:57;;;;;;;3.80;1.90;;;22.70;97.00;;;;;;5011633;28;20300;-73
2022/06/03 12:58:47;;;;;;;2.17;1.70;;;22.70;96.50;;;;;;5012110;28;20640;-75
2022/06/03 13:01:31;;;;;;;2.80;1.97;;;22.70;96.30;;;;;;5011558;28;20283;-74
2022/06/03 13:04:32;;;;;;;4.30;1.83;;;22.60;96.20;;;;;;5011524;28;20266;-73
2022/06/03 13:07:13;;;;;;;3.93;1.70;;;22.70;96.30;;;;;;5008855;28;20574;-74
2022/06/03 13:09:51;;;;;;;5.13;1.90;;;22.80;95.80;;;;;;5011448;28;20241;-72
2022/06/03 13:12:22;;;;;;;3.23;2.20;;;22.80;95.80;;;;;;5011804;28;20222;-73
2022/06/03 13:14:49;;;;;;;2.40;1.90;;;22.80;95.50;;;;;;5004306;28;20214;-76
2022/06/03 13:17:49;;;;;;;1.97;1.63;;;22.80;96.10;;;;;;4997387;28;20200;-76
2022/06/03 13:20:37;;;;;;;2.20;1.90;;;22.70;95.30;;;;;;5009411;28;20245;-77
2022/06/03 13:23:24;;;;;;;2.23;1.80;;;22.60;95.80;;;;;;5015334;28;20191;-78
2022/06/03 13:25:54;;;;;;;2.40;1.90;;;22.60;96.10;;;;;;5015754;28;20628;-77
2022/06/03 13:28:40;;;;;;;3.73;1.90;;;22.70;95.60;;;;;;5010019;28;20198;-76
2022/06/03 13:31:22;;;;;;;1.90;1.80;;;22.60;95.80;;;;;;5011754;28;20286;-77
2022/06/03 13:34:16;;;;;;;2.37;1.70;;;22.60;95.30;;;;;;5015486;28;20196;-78
2022/06/03 13:36:53;;;;;;;2.10;1.87;;;22.60;95.80;;;;;;5016044;28;20230;-76
2022/06/03 13:39:54;;;;;;;2.23;1.90;;;22.60;95.60;;;;;;5015124;28;20190;-77
2022/06/03 13:45:22;;;;;;;2.50;2.00;;;22.70;95.80;;;;;;5014736;28;20185;-74
2022/06/03 13:47:52;;;;;;;3.10;1.80;;;22.70;95.90;;;;;;5014830;28;20801;-72
2022/06/03 13:50:31;;;;;;;4.23;1.70;;;22.70;96.10;;;;;;5014884;28;20247;-73
2022/06/03 13:53:01;;;;;;;2.27;1.83;;;22.70;95.50;;;;;;5015123;28;20315;-73
2022/06/03 13:55:33;;;;;;;2.23;1.90;;;22.80;95.60;;;;;;5014715;28;20219;-71
2022/06/03 13:58:03;;;;;;;2.10;1.70;;;22.80;95.90;;;;;;5014807;28;20203;-73
2022/06/03 14:00:35;;;;;;;2.70;2.00;;;22.80;95.80;;;;;;5014794;28;20628;-73
2022/06/03 14:03:13;;;;;;;3.90;2.27;;;22.90;96.10;;;;;;5015305;28;20552;-73
2022/06/03 14:05:42;;;;;;;2.77;2.00;;;23.00;95.60;;;;;;5015125;28;20295;-73
2022/06/03 14:08:18;;;;;;;2.97;1.87;;;23.00;95.00;;;;;;5014711;28;20604;-74
2022/06/03 14:10:49;;;;;;;3.10;1.80;;;23.00;95.20;;;;;;5014714;28;20199;-72
2022/06/03 14:13:24;;;;;;;2.77;1.80;;;23.10;94.70;;;;;;5014549;28;20197;-74
2022/06/03 14:15:57;;;;;;;2.17;1.80;;;23.10;94.70;;;;;;5014674;28;20253;-72
2022/06/03 14:18:47;;;;;;;4.10;1.80;;;23.10;95.10;;;;;;5014886;28;20221;-73
2022/06/03 14:21:18;;;;;;;4.27;2.07;;;23.20;95.00;;;;;;5015479;28;20638;-73
2022/06/03 14:23:49;;;;;;;3.67;1.80;;;23.20;94.90;;;;;;5014893;28;20297;-72
2022/06/03 14:26:21;;;;;;;4.13;2.00;;;23.30;94.80;;;;;;5015250;28;20242;-73
2022/06/03 14:28:55;;;;;;;2.67;1.87;;;23.20;94.60;;;;;;5015662;28;20228;-73
2022/06/03 14:31:28;;;;;;;2.33;1.93;;;23.20;94.90;;;;;;5015305;28;20192;-72
2022/06/03 14:33:59;;;;;;;2.83;2.10;;;23.20;94.90;;;;;;5015020;28;20188;-75
2022/06/03 14:36:28;;;;;;;4.63;1.80;;;23.20;94.80;;;;;;5014665;28;20191;-73
2022/06/03 14:39:02;;;;;;;5.10;1.97;;;23.30;94.30;;;;;;5014973;28;20295;-74
2022/06/03 14:41:34;;;;;;;3.70;1.80;;;23.30;94.20;;;;;;5014523;28;20198;-72
2022/06/03 14:44:03;;;;;;;4.07;2.10;;;23.20;93.60;;;;;;5014789;28;20607;-75
2022/06/03 14:46:41;;;;;;;2.10;1.90;;;23.20;94.60;;;;;;5014434;28;20756;-72
2022/06/03 14:49:13;;;;;;;4.97;1.90;;;23.30;94.00;;;;;;5014359;28;20192;-73
2022/06/03 14:51:44;;;;;;;2.33;1.80;;;23.30;94.00;;;;;;5014815;28;20649;-73
2022/06/03 14:54:15;;;;;;;4.17;1.87;;;23.30;94.00;;;;;;5013754;28;20192;-73
2022/06/03 14:56:47;;;;;;;2.00;1.77;;;23.30;93.70;;;;;;5014192;28;20196;-72